Time;durP1;ratioP1;P1;durP2;ratioP2;P2;SDS_P1;SDS_P2;PMS_P1;PMS_P2;Temp;Humidity;BMP_temperature;BMP_pressure;BME280_temperature;BME280_humidity;BME280_pressure;Samples;Min_cycle;Max_cycle;Signal;HPM_P1;HPM_P2
2023/01/01 00:03:55;;;;;;;25.92;12.95;;;;;;;13.20;100.00;100401.13;10539100;28;20036;-76
2023/01/01 00:14:15;;;;;;;23.52;14.10;;;;;;;12.77;100.00;100431.13;10590378;27;20035;-77
2023/01/01 00:19:15;;;;;;;26.17;13.50;;;;;;;12.53;100.00;100447.47;10589483;27;20055;-77
2023/01/01 00:24:16;;;;;;;22.05;10.57;;;;;;;12.49;100.00;100440.84;10571303;27;20096;-76
2023/01/01 00:29:16;;;;;;;26.00;13.57;;;;;;;12.36;100.00;100447.75;10580300;27;20040;-77
2023/01/01 00:34:17;;;;;;;28.33;19.13;;;;;;;12.20;100.00;100471.75;10583514;27;20531;-77
2023/01/01 00:39:17;;;;;;;33.90;22.63;;;;;;;12.10;100.00;100471.75;10590017;27;20036;-77
2023/01/01 00:44:18;;;;;;;43.65;24.48;;;;;;;12.12;100.00;100475.06;10570767;27;20480;-76
2023/01/01 00:49:18;;;;;;;39.08;26.77;;;;;;;12.05;100.00;100435.88;10588759;27;20031;-75
2023/01/01 00:54:19;;;;;;;44.90;30.83;;;;;;;12.07;100.00;100439.19;10588984;27;20035;-76
2023/01/01 00:59:20;;;;;;;45.72;29.38;;;;;;;11.96;100.00;100446.63;10593646;27;20040;-76
2023/01/01 01:04:20;;;;;;;41.08;24.10;;;;;;;12.02;100.00;100464.84;10569838;27;20036;-76
2023/01/01 01:09:21;;;;;;;36.58;21.45;;;;;;;12.05;100.00;100452.41;10588344;27;20040;-77
2023/01/01 01:14:21;;;;;;;30.92;19.60;;;;;;;12.15;100.00;100457.94;10567204;27;20032;-75
2023/01/01 01:19:24;;;;;;;28.55;15.88;;;;;;;12.27;100.00;100461.28;10562473;28;20035;-75
2023/01/01 01:24:25;;;;;;;30.10;16.02;;;;;;;12.48;100.00;100462.09;10585394;27;20066;-75
2023/01/01 01:29:25;;;;;;;27.25;16.63;;;;;;;12.48;100.00;100461.25;10584955;27;20412;-75
2023/01/01 01:34:26;;;;;;;35.63;16.65;;;;;;;12.54;100.00;100482.25;10568345;27;20079;-75
2023/01/01 01:39:26;;;;;;;29.77;16.55;;;;;;;12.55;100.00;100481.16;10561171;27;20044;-77
2023/01/01 01:44:48;;;;;;;36.63;21.08;;;;;;;12.34;100.00;100482.25;10543350;28;20028;-74
2023/01/01 01:49:50;;;;;;;32.90;18.65;;;;;;;12.10;100.00;100466.25;10544560;28;20040;-76
2023/01/01 01:54:50;;;;;;;35.40;21.75;;;;;;;12.14;100.00;100483.91;10526221;28;20032;-75
2023/01/01 01:59:52;;;;;;;39.83;22.75;;;;;;;12.08;100.00;100501.56;10542133;28;20529;-76
2023/01/01 02:04:52;;;;;;;31.23;19.92;;;;;;;12.05;100.00;100502.09;10525839;28;20042;-76
2023/01/01 02:09:53;;;;;;;31.75;18.73;;;;;;;12.19;100.00;100505.16;10561165;27;20043;-75
2023/01/01 02:14:53;;;;;;;31.75;20.55;;;;;;;12.15;100.00;100507.63;10567073;28;20035;-77
2023/01/01 02:20:00;;;;;;;34.97;19.17;;;;;;;12.25;100.00;100518.69;10549914;27;20039;-76
2023/01/01 02:25:24;;;;;;;33.05;18.48;;;;;;;12.24;100.00;100522.56;10605993;27;20040;-76
2023/01/01 02:30:26;;;;;;;32.53;17.60;;;;;;;12.29;100.00;100536.34;10549886;27;20027;-75
2023/01/01 02:35:37;;;;;;;30.38;16.23;;;;;;;12.32;100.00;100535.81;10580376;27;20099;-76
2023/01/01 02:40:40;;;;;;;24.02;16.17;;;;;;;12.32;100.00;100519.25;10549894;27;20039;-75
2023/01/01 02:45:40;;;;;;;31.35;15.60;;;;;;;12.31;100.00;100523.09;10549113;27;20082;-76
2023/01/01 02:50:41;;;;;;;23.88;14.38;;;;;;;12.27;100.00;100501.84;10548391;27;20038;-75
2023/01/01 02:55:51;;;;;;;28.58;13.85;;;;;;;12.43;100.00;100508.22;10548600;27;20032;-76
2023/01/01 03:00:53;;;;;;;19.52;12.32;;;;;;;12.48;100.00;100505.44;10582080;28;20487;-74
2023/01/01 03:06:25;;;;;;;24.67;11.00;;;;;;;12.52;100.00;100506.53;10546438;27;20046;-76
2023/01/01 03:11:32;;;;;;;28.70;10.20;;;;;;;12.47;100.00;100509.31;10567241;27;20036;-76
2023/01/01 03:16:56;;;;;;;22.77;9.10;;;;;;;12.61;100.00;100498.53;10565207;27;20036;-77
2023/01/01 03:21:59;;;;;;;29.42;10.23;;;;;;;12.58;100.00;100502.69;10549377;27;20043;-75
2023/01/01 03:27:24;;;;;;;19.58;9.25;;;;;;;12.51;100.00;100510.44;10547960;27;20068;-74
2023/01/01 03:37:59;;;;;;;19.70;7.45;;;;;;;12.67;100.00;100503.78;10580183;27;20043;-74
2023/01/01 03:43:04;;;;;;;17.17;7.13;;;;;;;12.82;100.00;100507.66;10563872;27;20036;-75
2023/01/01 03:48:05;;;;;;;14.63;6.07;;;;;;;12.95;100.00;100536.63;10563945;28;20119;-74
2023/01/01 03:53:17;;;;;;;10.85;5.22;;;;;;;12.98;100.00;100542.44;10538484;28;20439;-76
2023/01/01 03:58:25;;;;;;;11.57;5.75;;;;;;;12.98;100.00;100550.72;10537240;28;20123;-75
2023/01/01 04:03:27;;;;;;;10.40;4.15;;;;;;;13.09;100.00;100557.88;10538061;28;20044;-75
2023/01/01 04:08:27;;;;;;;9.98;4.30;;;;;;;13.03;100.00;100556.22;10521016;28;20617;-75
2023/01/01 04:13:28;;;;;;;14.77;4.38;;;;;;;12.99;100.00;100559.84;10538341;28;20561;-77
2023/01/01 04:18:28;;;;;;;13.23;3.80;;;;;;;12.90;100.00;100563.16;10520884;28;20361;-78
2023/01/01 04:23:29;;;;;;;17.25;7.38;;;;;;;12.79;100.00;100560.69;10529354;28;20036;-77
2023/01/01 04:28:29;;;;;;;16.40;5.82;;;;;;;12.42;100.00;100567.28;10562501;28;20032;-77
2023/01/01 04:33:31;;;;;;;13.90;6.15;;;;;;;12.29;100.00;100599.84;10545653;28;20066;-77
2023/01/01 04:38:34;;;;;;;15.57;7.80;;;;;;;11.90;100.00;100604.97;10563088;28;20040;-77
2023/01/01 04:43:35;;;;;;;12.85;8.02;;;;;;;11.61;100.00;100596.25;10580210;28;20138;-77
2023/01/01 04:48:35;;;;;;;20.83;9.00;;;;;;;11.51;100.00;100619.91;10562483;28;20091;-77
2023/01/01 04:53:36;;;;;;;16.35;9.52;;;;;;;11.08;100.00;100588.78;10577608;28;20430;-77
2023/01/01 04:58:37;;;;;;;14.05;8.82;;;;;;;11.27;100.00;100591.09;10602394;27;20446;-77
2023/01/01 05:03:38;;;;;;;11.82;5.93;;;;;;;11.44;100.00;100607.47;10586617;27;20372;-77
2023/01/01 05:08:39;;;;;;;10.80;5.00;;;;;;;11.66;100.00;100618.34;10604183;27;20035;-77
2023/01/01 05:13:41;;;;;;;15.23;4.05;;;;;;;11.82;100.00;100630.25;10570276;27;20031;-76
2023/01/01 05:18:42;;;;;;;10.18;3.92;;;;;;;11.98;100.00;100634.78;10564080;27;20036;-77
2023/01/01 05:23:42;;;;;;;8.10;3.60;;;;;;;11.94;100.00;100605.25;10543148;28;20058;-78
2023/01/01 05:28:43;;;;;;;6.22;2.78;;;;;;;11.97;100.00;100604.69;10526961;28;20056;-75
2023/01/01 05:33:44;;;;;;;5.50;2.85;;;;;;;12.09;100.00;100639.25;10526596;28;20040;-77
2023/01/01 05:38:44;;;;;;;12.30;2.80;;;;;;;12.11;100.00;100650.00;10527125;28;20099;-77
2023/01/01 05:43:45;;;;;;;7.95;2.40;;;;;;;12.11;100.00;100644.47;10545911;28;20047;-77
2023/01/01 05:48:45;;;;;;;5.97;2.85;;;;;;;12.15;100.00;100650.31;10526559;28;20077;-76
2023/01/01 05:53:46;;;;;;;7.10;2.17;;;;;;;12.20;100.00;100653.91;10570776;27;20049;-76
2023/01/01 05:58:46;;;;;;;6.45;1.90;;;;;;;12.33;100.00;100638.78;10567682;27;20399;-74
2023/01/01 06:03:49;;;;;;;9.80;2.05;;;;;;;12.25;100.00;100667.72;10536301;28;20542;-75
2023/01/01 06:08:51;;;;;;;11.38;3.03;;;;;;;12.18;100.00;100672.69;10542329;28;20039;-75
2023/01/01 06:13:53;;;;;;;3.90;1.92;;;;;;;12.26;100.00;100697.00;10543123;28;20036;-73
2023/01/01 06:18:53;;;;;;;8.68;2.35;;;;;;;12.17;100.00;100665.47;10541550;28;20128;-73
2023/01/01 06:23:55;;;;;;;6.50;1.58;;;;;;;12.22;100.00;100657.25;10552867;27;20559;-74
2023/01/01 06:28:55;;;;;;;7.88;1.80;;;;;;;12.19;100.00;100674.31;10583362;27;20038;-74
2023/01/01 06:33:56;;;;;;;4.15;1.80;;;;;;;12.13;100.00;100697.47;10566368;27;20047;-76
2023/01/01 06:39:00;;;;;;;4.68;1.10;;;;;;;12.15;100.00;100695.28;10567035;27;20100;-77
2023/01/01 06:44:00;;;;;;;5.13;1.15;;;;;;;12.08;100.00;100727.81;10584050;27;20042;-75
2023/01/01 06:49:05;;;;;;;6.68;1.13;;;;;;;11.97;100.00;100748.16;10582905;27;20054;-76
2023/01/01 06:54:06;;;;;;;4.60;1.70;;;;;;;11.99;100.00;100776.31;10581294;28;20055;-75
2023/01/01 06:59:07;;;;;;;6.20;1.38;;;;;;;11.97;100.00;100782.13;10582137;27;20057;-75
2023/01/01 07:04:10;;;;;;;10.32;1.33;;;;;;;11.88;100.00;100776.25;10582210;27;20433;-74
2023/01/01 07:09:10;;;;;;;3.45;1.13;;;;;;;11.85;100.00;100789.72;10532290;28;20024;-75
2023/01/01 07:14:10;;;;;;;7.80;1.20;;;;;;;11.85;100.00;100800.75;10582997;28;20096;-75
2023/01/01 07:19:11;;;;;;;5.70;2.33;;;;;;;11.71;100.00;100826.03;10579488;27;20023;-74
2023/01/01 07:24:13;;;;;;;7.07;1.42;;;;;;;11.66;100.00;100845.28;10564004;27;20035;-74
2023/01/01 07:29:13;;;;;;;8.18;1.85;;;;;;;11.64;100.00;100839.22;10547423;27;20054;-76
2023/01/01 07:34:18;;;;;;;6.53;2.10;;;;;;;11.59;100.00;100863.97;10539116;28;20096;-74
2023/01/01 07:39:19;;;;;;;10.57;2.45;;;;;;;11.52;100.00;100861.44;10506609;28;20036;-75
2023/01/01 07:44:19;;;;;;;7.60;1.70;;;;;;;11.52;100.00;100872.47;10522147;28;20032;-74
2023/01/01 07:49:20;;;;;;;7.32;1.80;;;;;;;11.49;100.00;100888.69;10537420;28;20036;-74
2023/01/01 07:54:20;;;;;;;5.03;1.52;;;;;;;11.43;100.00;100903.50;10555252;28;20032;-75
2023/01/01 07:59:20;;;;;;;8.43;2.75;;;;;;;11.49;100.00;100922.63;10539863;28;20036;-75
2023/01/01 08:04:21;;;;;;;7.93;2.10;;;;;;;11.42;100.00;100927.50;10555846;28;20032;-73
2023/01/01 08:09:21;;;;;;;13.85;2.60;;;;;;;11.37;100.00;100946.75;10541325;28;20044;-74
2023/01/01 08:14:22;;;;;;;12.40;2.17;;;;;;;11.26;100.00;100965.06;10579109;27;20036;-76
2023/01/01 08:19:22;;;;;;;8.00;2.28;;;;;;;11.23;100.00;100971.09;10580744;27;20043;-76
2023/01/01 08:24:23;;;;;;;8.60;2.35;;;;;;;11.31;100.00;100983.59;10563221;27;20113;-75
2023/01/01 08:29:23;;;;;;;11.75;3.63;;;;;;;11.24;100.00;100993.97;10580608;27;20469;-74
2023/01/01 08:34:24;;;;;;;7.15;2.00;;;;;;;11.22;100.00;101012.69;10586054;27;20457;-75
2023/01/01 08:39:24;;;;;;;14.20;3.78;;;;;;;11.20;100.00;101014.84;10587745;27;20054;-75
2023/01/01 08:44:25;;;;;;;13.82;3.00;;;;;;;11.26;100.00;101027.63;10587833;27;20460;-76
2023/01/01 08:49:25;;;;;;;6.78;1.98;;;;;;;11.25;100.00;101056.28;10594556;27;20035;-75
2023/01/01 08:54:26;;;;;;;13.38;2.50;;;;;;;11.26;100.00;101052.41;10589493;27;20036;-73
2023/01/01 08:59:26;;;;;;;9.75;2.30;;;;;;;11.24;100.00;101051.84;10604553;27;20505;-75
2023/01/01 09:04:27;;;;;;;10.23;2.13;;;;;;;11.24;100.00;101049.09;10551952;28;20512;-75
2023/01/01 09:09:27;;;;;;;10.63;2.20;;;;;;;11.25;100.00;101050.75;10560983;27;20444;-75
2023/01/01 09:14:28;;;;;;;9.57;2.72;;;;;;;11.27;100.00;101070.63;10586420;27;20368;-74
2023/01/01 09:19:28;;;;;;;13.75;3.17;;;;;;;11.33;100.00;101086.16;10569443;27;20517;-75
2023/01/01 09:24:29;;;;;;;12.27;4.00;;;;;;;11.24;100.00;101082.97;10603851;27;20053;-75
2023/01/01 09:29:29;;;;;;;7.13;2.53;;;;;;;11.28;100.00;101086.91;10552060;27;20032;-75
2023/01/01 09:34:30;;;;;;;11.65;2.55;;;;;;;11.28;100.00;101110.88;10587847;27;20595;-75
2023/01/01 09:39:30;;;;;;;10.77;3.05;;;;;;;11.29;100.00;101116.16;10576432;27;20043;-75
2023/01/01 09:44:55;;;;;;;14.00;3.83;;;;;;;11.27;100.00;101111.97;10567649;27;20502;-73
2023/01/01 09:50:02;;;;;;;11.88;2.53;;;;;;;11.31;100.00;101115.91;10587154;27;20039;-75
2023/01/01 09:55:05;;;;;;;11.02;1.90;;;;;;;11.30;100.00;101133.50;10585303;27;20031;-74
2023/01/01 10:00:13;;;;;;;10.30;2.00;;;;;;;11.34;100.00;101131.91;10568174;27;20035;-74
2023/01/01 10:05:34;;;;;;;14.60;2.42;;;;;;;11.36;100.00;101129.75;10569242;27;20068;-75
2023/01/01 10:10:40;;;;;;;15.73;2.50;;;;;;;11.36;100.00;101124.22;10543892;28;20036;-75
2023/01/01 10:15:45;;;;;;;8.90;2.75;;;;;;;11.33;100.00;101124.75;10542547;28;20033;-75
2023/01/01 10:20:49;;;;;;;17.58;2.75;;;;;;;11.28;100.00;101133.75;10541903;28;20040;-76
2023/01/01 10:25:50;;;;;;;9.52;2.70;;;;;;;11.15;100.00;101100.22;10542658;28;20115;-75
2023/01/01 10:30:51;;;;;;;11.90;2.72;;;;;;;10.44;100.00;101001.63;10525064;28;20534;-74
2023/01/01 10:35:52;;;;;;;7.05;2.35;;;;;;;11.08;100.00;101144.50;10569902;27;20081;-73
2023/01/01 10:40:57;;;;;;;13.25;2.65;;;;;;;11.15;100.00;101160.84;10599982;27;20028;-74
2023/01/01 10:45:58;;;;;;;19.38;4.05;;;;;;;11.11;100.00;101161.34;10566534;28;20031;-75
2023/01/01 10:51:05;;;;;;;10.90;2.05;;;;;;;11.14;100.00;101153.66;10565941;27;20059;-75
2023/01/01 10:56:07;;;;;;;15.23;2.72;;;;;;;11.09;100.00;101158.00;10582729;28;20039;-74
2023/01/01 11:01:18;;;;;;;15.27;2.30;;;;;;;11.02;100.00;101140.81;10583317;27;20647;-75
2023/01/01 11:06:20;;;;;;;10.48;1.95;;;;;;;11.11;100.00;101144.81;10572417;28;20449;-75
2023/01/01 11:11:22;;;;;;;7.60;1.67;;;;;;;11.13;100.00;101143.72;10539301;28;20500;-76
2023/01/01 11:16:22;;;;;;;13.65;2.47;;;;;;;11.15;100.00;101149.81;10539664;28;20044;-76
2023/01/01 11:21:23;;;;;;;11.43;2.35;;;;;;;11.10;100.00;101147.84;10542628;27;20036;-75
2023/01/01 11:26:25;;;;;;;20.08;3.35;;;;;;;11.14;100.00;101150.91;10543798;28;20040;-76
2023/01/01 11:31:36;;;;;;;10.23;2.42;;;;;;;11.15;100.00;101161.69;10558143;28;20593;-77
2023/01/01 11:36:36;;;;;;;11.52;2.40;;;;;;;11.22;100.00;101192.63;10545175;27;20036;-76
2023/01/01 11:41:47;;;;;;;12.07;2.25;;;;;;;11.30;100.00;101210.69;10559864;27;20028;-75
2023/01/01 11:46:48;;;;;;;10.52;2.92;;;;;;;11.37;100.00;101208.63;10522645;28;20036;-75
2023/01/01 11:51:48;;;;;;;8.60;2.38;;;;;;;11.40;100.00;101205.34;10553601;27;20039;-75
2023/01/01 11:56:51;;;;;;;16.00;1.85;;;;;;;11.44;100.00;101208.44;10544098;28;20431;-74
2023/01/01 12:01:54;;;;;;;14.48;2.72;;;;;;;11.46;100.00;101187.78;10538422;28;20100;-75
2023/01/01 12:07:05;;;;;;;9.52;2.22;;;;;;;11.61;100.00;101202.88;10561238;27;20092;-76
2023/01/01 12:12:19;;;;;;;12.50;2.53;;;;;;;11.85;100.00;101193.31;10562935;27;20054;-76
2023/01/01 12:17:37;;;;;;;15.93;1.90;;;;;;;11.89;100.00;101193.69;10563394;28;20128;-75
2023/01/01 12:22:38;;;;;;;10.75;2.30;;;;;;;12.11;100.00;101207.47;10566545;27;20131;-76
2023/01/01 12:27:57;;;;;;;16.23;2.28;;;;;;;12.05;100.00;101205.72;10582041;27;20047;-74
2023/01/01 12:33:16;;;;;;;7.38;2.22;;;;;;;12.04;100.00;101195.78;10588617;27;20028;-75
2023/01/01 12:38:50;;;;;;;13.57;2.35;;;;;;;11.97;100.00;101208.94;10590383;27;20032;-76
2023/01/01 12:44:18;;;;;;;12.75;2.75;;;;;;;11.87;100.00;101218.72;10588824;27;20043;-76
2023/01/01 12:49:53;;;;;;;10.98;3.15;;;;;;;11.90;100.00;101218.22;10604402;27;20063;-77
2023/01/01 12:54:59;;;;;;;12.85;3.65;;;;;;;11.86;100.00;101239.09;10604317;27;20490;-75
2023/01/01 13:00:02;;;;;;;16.88;2.25;;;;;;;11.91;100.00;101254.97;10589232;27;20057;-77
2023/01/01 13:05:09;;;;;;;9.70;3.00;;;;;;;11.93;100.00;101261.06;10571036;27;20040;-75
2023/01/01 13:10:21;;;;;;;20.80;4.28;;;;;;;11.84;100.00;101233.00;10586843;27;20117;-76
2023/01/01 13:15:37;;;;;;;19.30;5.97;;;;;;;11.80;100.00;101239.28;10558016;28;20047;-75
2023/01/01 13:20:42;;;;;;;22.83;7.70;;;;;;;11.75;100.00;101242.81;10545161;28;20060;-75
2023/01/01 13:25:43;;;;;;;16.95;2.78;;;;;;;11.79;100.00;101238.47;10552549;27;20062;-76
2023/01/01 13:30:43;;;;;;;15.38;2.88;;;;;;;11.75;100.00;101242.81;10545631;28;20788;-76
2023/01/01 13:35:44;;;;;;;11.85;2.00;;;;;;;11.73;100.00;101252.44;10552510;28;20629;-76
2023/01/01 13:40:48;;;;;;;16.25;2.83;;;;;;;11.64;100.00;101241.00;10575853;27;20032;-76
2023/01/01 13:45:54;;;;;;;14.80;2.35;;;;;;;11.64;100.00;101263.06;10567344;27;20031;-76
2023/01/01 13:51:16;;;;;;;14.85;3.28;;;;;;;11.59;100.00;101251.94;10568734;28;20043;-76
2023/01/01 13:56:31;;;;;;;13.52;2.58;;;;;;;11.61;100.00;101252.53;10588138;27;20036;-75
2023/01/01 14:01:53;;;;;;;17.27;4.05;;;;;;;11.55;100.00;101259.88;10584128;27;20047;-76
2023/01/01 14:06:53;;;;;;;19.20;3.05;;;;;;;11.49;100.00;101259.00;10583136;28;20032;-75
2023/01/01 14:11:54;;;;;;;17.95;3.53;;;;;;;11.48;100.00;101276.59;10550004;27;20063;-76
2023/01/01 14:17:04;;;;;;;15.25;4.25;;;;;;;11.40;100.00;101290.81;10535981;27;20036;-76
2023/01/01 14:22:06;;;;;;;11.77;2.83;;;;;;;11.36;100.00;101281.34;10571343;27;20042;-78
2023/01/01 14:27:07;;;;;;;13.32;3.20;;;;;;;11.30;100.00;101302.47;10546687;27;20051;-79
2023/01/01 14:32:12;;;;;;;12.27;2.70;;;;;;;11.23;100.00;101323.03;10549090;27;20302;-76
2023/01/01 14:37:23;;;;;;;14.35;3.60;;;;;;;11.11;100.00;101299.13;10558059;28;20055;-78
2023/01/01 14:42:23;;;;;;;11.60;3.17;;;;;;;11.03;100.00;101313.28;10565109;27;20032;-75
2023/01/01 14:47:33;;;;;;;14.82;2.88;;;;;;;11.05;100.00;101330.41;10557197;28;20036;-75
2023/01/01 14:52:34;;;;;;;14.55;3.25;;;;;;;10.94;100.00;101320.28;10562294;27;20621;-75
2023/01/01 14:57:35;;;;;;;12.77;3.50;;;;;;;10.77;100.00;101323.00;10580612;27;20057;-76
2023/01/01 15:02:36;;;;;;;15.98;3.65;;;;;;;10.77;100.00;101334.00;10544677;27;20046;-76
2023/01/01 15:07:37;;;;;;;14.43;3.42;;;;;;;10.68;100.00;101321.69;10570402;27;20035;-75
2023/01/01 15:12:40;;;;;;;14.32;3.55;;;;;;;10.60;100.00;101331.16;10552990;28;20044;-75
2023/01/01 15:17:44;;;;;;;17.55;3.95;;;;;;;10.50;100.00;101336.47;10533593;28;20032;-75
2023/01/01 15:22:45;;;;;;;15.65;4.50;;;;;;;10.42;100.00;101339.59;10550722;28;20047;-76
2023/01/01 15:27:49;;;;;;;15.93;4.32;;;;;;;10.39;100.00;101351.09;10535091;28;20187;-76
2023/01/01 15:32:50;;;;;;;14.10;4.35;;;;;;;10.17;100.00;101321.41;10535734;28;20107;-77
2023/01/01 15:37:52;;;;;;;18.13;4.90;;;;;;;10.22;100.00;101354.53;10572583;27;20035;-77
2023/01/01 15:42:56;;;;;;;21.70;4.88;;;;;;;10.20;100.00;101353.09;10594826;27;20040;-77
2023/01/01 15:48:05;;;;;;;16.90;6.18;;;;;;;10.11;100.00;101358.13;10554905;28;20039;-78
2023/01/01 15:53:22;;;;;;;15.05;4.03;;;;;;;10.01;100.00;101344.97;10560992;28;20059;-79
2023/01/01 15:58:25;;;;;;;13.27;4.80;;;;;;;10.00;100.00;101350.72;10545370;28;20047;-78
2023/01/01 16:03:26;;;;;;;15.38;4.57;;;;;;;9.85;100.00;101330.00;10524570;28;20092;-78
2023/01/01 16:08:27;;;;;;;17.50;4.82;;;;;;;9.90;100.00;101354.91;10515339;28;20036;-78
2023/01/01 16:13:27;;;;;;;17.98;5.40;;;;;;;9.75;100.00;101332.50;10468731;28;20036;-78
2023/01/01 16:18:33;;;;;;;11.68;4.45;;;;;;;9.84;100.00;101352.28;10514128;28;20048;-78
2023/01/01 16:23:33;;;;;;;18.67;5.40;;;;;;;9.87;100.00;101358.13;10483038;28;20503;-76
2023/01/01 16:28:33;;;;;;;17.67;4.50;;;;;;;9.99;100.00;101368.31;10500709;28;20121;-77
2023/01/01 16:33:34;;;;;;;16.60;5.13;;;;;;;9.98;100.00;101361.94;10557502;28;20040;-77
2023/01/01 16:38:34;;;;;;;17.33;4.13;;;;;;;10.01;100.00;101350.47;10559615;28;20027;-78
2023/01/01 16:43:35;;;;;;;24.13;6.10;;;;;;;10.09;100.00;101358.38;10522601;28;20032;-77
2023/01/01 16:48:36;;;;;;;18.13;4.90;;;;;;;10.10;100.00;101346.28;10578818;28;20040;-78
2023/01/01 16:53:36;;;;;;;15.77;4.30;;;;;;;10.07;100.00;101354.19;10564682;28;20067;-77
2023/01/01 16:58:37;;;;;;;17.15;5.40;;;;;;;10.07;100.00;101348.69;10550818;27;20032;-77
2023/01/01 17:03:38;;;;;;;17.23;5.60;;;;;;;10.01;100.00;101349.66;10587245;27;20058;-75
2023/01/01 17:08:38;;;;;;;16.58;4.10;;;;;;;9.86;100.00;101331.69;10535762;28;20051;-78
2023/01/01 17:13:40;;;;;;;22.73;5.53;;;;;;;9.94;100.00;101335.16;10569800;27;20641;-76
2023/01/01 17:18:40;;;;;;;24.00;5.43;;;;;;;9.90;100.00;101324.66;10571336;28;20050;-78
2023/01/01 17:23:41;;;;;;;21.05;5.78;;;;;;;9.88;100.00;101335.06;10568641;28;20028;-77
2023/01/01 17:28:42;;;;;;;19.33;4.75;;;;;;;9.80;100.00;101321.66;10585164;27;20032;-77
2023/01/01 17:33:42;;;;;;;18.67;5.93;;;;;;;9.79;100.00;101336.47;10584366;27;20081;-78
2023/01/01 17:38:43;;;;;;;17.08;4.85;;;;;;;9.70;100.00;101326.91;10575131;27;20035;-77
2023/01/01 17:43:45;;;;;;;15.43;4.30;;;;;;;9.63;100.00;101328.91;10583804;27;20043;-77
2023/01/01 17:48:46;;;;;;;19.90;6.65;;;;;;;9.57;100.00;101338.09;10583346;27;20051;-77
2023/01/01 17:53:46;;;;;;;19.02;4.30;;;;;;;9.54;100.00;101328.44;10566833;27;20044;-78
2023/01/01 17:58:48;;;;;;;18.67;5.18;;;;;;;9.53;100.00;101324.03;10542333;27;20031;-77
2023/01/01 18:03:53;;;;;;;12.85;5.15;;;;;;;9.53;100.00;101314.91;10566609;27;20032;-78
2023/01/01 18:08:57;;;;;;;21.73;6.18;;;;;;;9.61;100.00;101307.19;10567167;27;20040;-78
2023/01/01 18:13:59;;;;;;;15.18;5.65;;;;;;;9.38;100.00;101250.25;10557565;27;20055;-77
2023/01/01 18:19:00;;;;;;;21.58;5.20;;;;;;;9.83;100.00;101310.16;10558735;27;20038;-77
2023/01/01 18:24:00;;;;;;;11.90;5.03;;;;;;;9.71;100.00;101290.06;10565816;27;20043;-77
2023/01/01 18:29:01;;;;;;;18.35;7.35;;;;;;;9.95;100.00;101306.59;10556635;28;20024;-77
2023/01/01 18:34:03;;;;;;;8.93;5.10;;;;;;;10.03;100.00;101298.81;10526363;27;20066;-78
2023/01/01 18:39:15;;;;;;;14.38;5.68;;;;;;;10.06;100.00;101297.47;10548216;27;20054;-77
2023/01/01 18:44:22;;;;;;;13.70;6.07;;;;;;;10.03;100.00;101297.97;10503249;28;20405;-78
2023/01/01 18:49:24;;;;;;;16.83;6.30;;;;;;;9.97;100.00;101293.44;10547446;27;20040;-77
2023/01/01 18:54:24;;;;;;;23.13;7.53;;;;;;;9.94;100.00;101304.91;10522907;27;20614;-78
2023/01/01 18:59:25;;;;;;;21.27;7.40;;;;;;;9.90;100.00;101283.41;10512241;27;20574;-78
2023/01/01 19:04:25;;;;;;;17.20;7.13;;;;;;;10.01;100.00;101300.13;10513468;27;20046;-78
2023/01/01 19:09:26;;;;;;;20.45;7.90;;;;;;;10.03;100.00;101292.47;10524656;27;20051;-78
2023/01/01 19:14:27;;;;;;;21.20;8.90;;;;;;;10.03;100.00;101304.31;10513359;28;20450;-79
2023/01/01 19:19:28;;;;;;;17.67;8.02;;;;;;;10.00;100.00;101298.44;10486523;28;20065;-77
2023/01/01 19:24:29;;;;;;;18.80;8.98;;;;;;;9.88;100.00;101285.56;10487276;28;20054;-78
2023/01/01 19:29:30;;;;;;;19.83;8.80;;;;;;;9.93;100.00;101297.75;10469509;27;20045;-81
2023/01/01 19:34:34;;;;;;;17.98;8.50;;;;;;;9.87;100.00;101294.03;10539156;28;20039;-78
2023/01/01 19:39:34;;;;;;;17.60;8.15;;;;;;;9.24;100.00;101177.34;10537491;28;20052;-80
2023/01/01 19:44:35;;;;;;;19.17;8.50;;;;;;;9.94;100.00;101271.91;10541714;27;20028;-78
2023/01/01 19:49:35;;;;;;;19.20;7.75;;;;;;;9.93;100.00;101267.50;10521918;28;20047;-79
2023/01/01 19:54:36;;;;;;;17.30;8.88;;;;;;;9.89;100.00;101265.22;10523179;28;20136;-81
2023/01/01 19:59:36;;;;;;;18.20;8.50;;;;;;;9.83;100.00;101273.59;10547529;28;21188;-80
2023/01/01 20:04:37;;;;;;;20.02;9.32;;;;;;;9.80;100.00;101272.16;10552347;28;20137;-80
2023/01/01 20:09:37;;;;;;;16.48;9.23;;;;;;;9.80;100.00;101277.66;10525861;28;20142;-80
2023/01/01 20:14:38;;;;;;;18.05;8.70;;;;;;;9.71;100.00;101279.06;10514888;28;20036;-80
2023/01/01 20:19:39;;;;;;;18.85;9.93;;;;;;;9.62;100.00;101264.84;10542428;28;20051;-80
2023/01/01 20:24:43;;;;;;;15.77;9.35;;;;;;;9.56;100.00;101265.81;10550585;28;20036;-79
2023/01/01 20:29:44;;;;;;;16.40;8.57;;;;;;;9.51;100.00;101265.69;10585443;27;20061;-78
2023/01/01 20:34:44;;;;;;;20.70;9.68;;;;;;;9.43;100.00;101261.38;10570030;27;20044;-78
2023/01/01 20:39:45;;;;;;;14.10;8.77;;;;;;;9.37;100.00;101256.84;10587027;27;20138;-78
2023/01/01 20:44:45;;;;;;;23.20;10.05;;;;;;;9.15;100.00;101220.00;10586020;27;20043;-78
2023/01/01 20:49:46;;;;;;;23.92;10.82;;;;;;;9.38;100.00;101261.25;10586541;27;20042;-78
2023/01/01 20:54:46;;;;;;;18.27;8.98;;;;;;;9.43;100.00;101274.28;10568991;27;20042;-77
2023/01/01 20:59:47;;;;;;;31.98;16.08;;;;;;;9.42;100.00;101276.19;10569072;27;20051;-80
2023/01/01 21:04:47;;;;;;;22.85;12.48;;;;;;;9.44;100.00;101268.53;10588008;27;20035;-71
2023/01/01 21:09:48;;;;;;;25.45;12.40;;;;;;;9.42;100.00;101256.94;10588113;27;20035;-80
2023/01/01 21:14:48;;;;;;;17.60;8.55;;;;;;;9.35;100.00;101241.66;10560469;28;20055;-79
2023/01/01 21:19:49;;;;;;;16.45;7.63;;;;;;;9.42;100.00;101256.94;10542814;28;20052;-79
2023/01/01 21:24:50;;;;;;;13.75;7.45;;;;;;;9.44;100.00;101256.72;10528582;28;20061;-80
2023/01/01 21:29:52;;;;;;;14.93;7.93;;;;;;;9.40;100.00;101239.03;10534292;28;20142;-79
2023/01/01 21:34:53;;;;;;;13.40;7.43;;;;;;;9.35;100.00;101237.00;10529864;28;20453;-79
2023/01/01 21:39:53;;;;;;;11.40;7.90;;;;;;;9.32;100.00;101211.91;10534034;28;20115;-80
2023/01/01 21:44:55;;;;;;;15.60;7.82;;;;;;;9.29;100.00;101210.47;10528691;28;20039;-81
2023/01/01 21:49:56;;;;;;;12.63;7.97;;;;;;;9.26;100.00;101206.28;10541404;27;20036;-81
2023/01/01 21:54:56;;;;;;;20.48;8.82;;;;;;;9.24;100.00;101196.59;10556314;27;20377;-80
2023/01/01 21:59:57;;;;;;;14.25;8.20;;;;;;;9.23;100.00;101189.44;10554803;28;20036;-80
2023/01/01 22:04:59;;;;;;;11.52;8.00;;;;;;;9.22;100.00;101196.84;10512383;28;20067;-80
2023/01/01 22:10:16;;;;;;;14.93;8.15;;;;;;;9.03;100.00;101157.66;10528963;27;20039;-79
2023/01/01 22:15:26;;;;;;;22.38;9.05;;;;;;;9.21;100.00;101175.94;10518105;27;20048;-81
2023/01/01 22:20:33;;;;;;;16.40;9.52;;;;;;;9.19;100.00;101166.25;10535101;28;20043;-81
2023/01/01 22:25:34;;;;;;;22.13;9.15;;;;;;;9.15;100.00;101165.06;10553724;28;20032;-80
2023/01/01 22:30:37;;;;;;;18.00;8.95;;;;;;;9.16;100.00;101151.09;10495693;28;20048;-80
2023/01/01 22:35:38;;;;;;;15.13;8.95;;;;;;;9.13;100.00;101123.28;10527493;28;20103;-80
2023/01/01 22:40:39;;;;;;;15.95;9.27;;;;;;;9.14;100.00;101122.22;10524281;28;20039;-79
2023/01/01 22:45:45;;;;;;;18.35;9.45;;;;;;;9.14;100.00;101119.47;10526555;28;20040;-79
2023/01/01 22:50:45;;;;;;;23.50;9.50;;;;;;;9.15;100.00;101107.38;10522662;28;20039;-79
2023/01/01 22:55:45;;;;;;;18.15;9.50;;;;;;;9.15;100.00;101099.16;10526854;28;20040;-80
2023/01/01 23:00:47;;;;;;;20.25;10.20;;;;;;;9.13;100.00;101073.81;10526884;28;20071;-80